sensor_id;sensor_type;location;lat;lon;timestamp;P1;durP1;ratioP1;P2;durP2;ratioP2
29700;SDS011;57917;51.380;-0.176;2023-04-24T00:01:02;22.50;;;10.38;;
29700;SDS011;57917;51.380;-0.176;2023-04-24T00:06:49;20.73;;;10.23;;
29700;SDS011;57917;51.380;-0.176;2023-04-24T00:12:41;19.38;;;10.38;;
29700;SDS011;57917;51.380;-0.176;2023-04-24T00:18:28;18.80;;;10.05;;
29700;SDS011;57917;51.380;-0.176;2023-04-24T00:24:15;17.52;;;9.32;;
29700;SDS011;57917;51.380;-0.176;2023-04-24T00:30:03;22.85;;;10.20;;
29700;SDS011;57917;51.380;-0.176;2023-04-24T00:35:50;19.25;;;9.00;;
29700;SDS011;57917;51.380;-0.176;2023-04-24T00:41:37;20.67;;;9.38;;
29700;SDS011;57917;51.380;-0.176;2023-04-24T00:47:24;17.85;;;8.93;;
29700;SDS011;57917;51.380;-0.176;2023-04-24T00:53:13;20.10;;;9.15;;
29700;SDS011;57917;51.380;-0.176;2023-04-24T00:59:00;19.23;;;9.43;;
29700;SDS011;57917;51.380;-0.176;2023-04-24T01:04:47;18.73;;;9.35;;
29700;SDS011;57917;51.380;-0.176;2023-04-24T01:10:38;28.15;;;9.68;;
29700;SDS011;57917;51.380;-0.176;2023-04-24T01:16:27;24.13;;;8.90;;
29700;SDS011;57917;51.380;-0.176;2023-04-24T01:22:17;19.05;;;8.60;;
29700;SDS011;57917;51.380;-0.176;2023-04-24T01:28:13;18.33;;;9.02;;
29700;SDS011;57917;51.380;-0.176;2023-04-24T01:34:00;16.42;;;8.82;;
29700;SDS011;57917;51.380;-0.176;2023-04-24T01:39:47;15.57;;;8.68;;
29700;SDS011;57917;51.380;-0.176;2023-04-24T01:45:34;18.35;;;8.55;;
29700;SDS011;57917;51.380;-0.176;2023-04-24T01:51:25;17.63;;;8.90;;
29700;SDS011;57917;51.380;-0.176;2023-04-24T01:57:20;21.20;;;9.02;;
29700;SDS011;57917;51.380;-0.176;2023-04-24T02:03:17;18.48;;;8.82;;
29700;SDS011;57917;51.380;-0.176;2023-04-24T02:09:03;18.83;;;9.18;;
29700;SDS011;57917;51.380;-0.176;2023-04-24T02:14:50;15.75;;;7.88;;
29700;SDS011;57917;51.380;-0.176;2023-04-24T02:20:39;18.23;;;8.75;;
29700;SDS011;57917;51.380;-0.176;2023-04-24T02:26:26;16.88;;;8.20;;
29700;SDS011;57917;51.380;-0.176;2023-04-24T02:32:13;24.77;;;9.60;;
29700;SDS011;57917;51.380;-0.176;2023-04-24T02:38:02;16.35;;;8.70;;
29700;SDS011;57917;51.380;-0.176;2023-04-24T02:43:49;15.50;;;7.55;;
29700;SDS011;57917;51.380;-0.176;2023-04-24T02:49:37;17.05;;;7.65;;
29700;SDS011;57917;51.380;-0.176;2023-04-24T02:55:24;16.73;;;8.68;;
29700;SDS011;57917;51.380;-0.176;2023-04-24T03:01:12;20.98;;;8.95;;
29700;SDS011;57917;51.380;-0.176;2023-04-24T03:06:59;16.70;;;8.60;;
29700;SDS011;57917;51.380;-0.176;2023-04-24T03:12:47;18.63;;;8.85;;
29700;SDS011;57917;51.380;-0.176;2023-04-24T03:18:34;17.08;;;8.50;;
29700;SDS011;57917;51.380;-0.176;2023-04-24T03:24:26;14.25;;;8.18;;
29700;SDS011;57917;51.380;-0.176;2023-04-24T03:30:15;13.90;;;8.10;;
29700;SDS011;57917;51.380;-0.176;2023-04-24T03:36:08;16.85;;;7.90;;
29700;SDS011;57917;51.380;-0.176;2023-04-24T03:41:58;15.30;;;8.10;;
29700;SDS011;57917;51.380;-0.176;2023-04-24T03:47:58;16.00;;;8.77;;
29700;SDS011;57917;51.380;-0.176;2023-04-24T03:53:47;16.13;;;8.05;;
29700;SDS011;57917;51.380;-0.176;2023-04-24T03:59:39;18.17;;;8.85;;
29700;SDS011;57917;51.380;-0.176;2023-04-24T04:05:35;19.75;;;8.60;;
29700;SDS011;57917;51.380;-0.176;2023-04-24T04:11:25;17.02;;;8.13;;
29700;SDS011;57917;51.380;-0.176;2023-04-24T04:17:12;19.52;;;7.88;;
29700;SDS011;57917;51.380;-0.176;2023-04-24T04:22:59;13.80;;;7.68;;
29700;SDS011;57917;51.380;-0.176;2023-04-24T04:28:58;18.10;;;7.88;;
29700;SDS011;57917;51.380;-0.176;2023-04-24T04:34:48;18.23;;;7.80;;
29700;SDS011;57917;51.380;-0.176;2023-04-24T04:40:39;17.90;;;7.88;;
29700;SDS011;57917;51.380;-0.176;2023-04-24T04:46:30;15.38;;;7.18;;
29700;SDS011;57917;51.380;-0.176;2023-04-24T04:52:38;16.15;;;8.35;;
29700;SDS011;57917;51.380;-0.176;2023-04-24T04:58:39;17.25;;;8.10;;
29700;SDS011;57917;51.380;-0.176;2023-04-24T05:04:30;16.15;;;7.93;;
29700;SDS011;57917;51.380;-0.176;2023-04-24T05:10:18;15.18;;;7.95;;
29700;SDS011;57917;51.380;-0.176;2023-04-24T05:16:10;17.02;;;7.55;;
29700;SDS011;57917;51.380;-0.176;2023-04-24T05:21:58;17.15;;;7.80;;
29700;SDS011;57917;51.380;-0.176;2023-04-24T05:27:51;26.65;;;8.45;;
29700;SDS011;57917;51.380;-0.176;2023-04-24T05:33:41;14.45;;;7.68;;
29700;SDS011;57917;51.380;-0.176;2023-04-24T05:39:37;19.65;;;8.30;;
29700;SDS011;57917;51.380;-0.176;2023-04-24T05:52:20;17.20;;;8.57;;
29700;SDS011;57917;51.380;-0.176;2023-04-24T05:59:17;18.77;;;8.52;;
29700;SDS011;57917;51.380;-0.176;2023-04-24T06:12:00;16.20;;;8.10;;
29700;SDS011;57917;51.380;-0.176;2023-04-24T06:17:57;18.60;;;8.63;;
29700;SDS011;57917;51.380;-0.176;2023-04-24T06:23:45;28.52;;;10.43;;
29700;SDS011;57917;51.380;-0.176;2023-04-24T06:29:35;15.15;;;8.15;;
29700;SDS011;57917;51.380;-0.176;2023-04-24T06:35:39;170.63;;;14.63;;
29700;SDS011;57917;51.380;-0.176;2023-04-24T06:41:29;17.77;;;8.05;;
29700;SDS011;57917;51.380;-0.176;2023-04-24T06:47:16;17.38;;;7.95;;
29700;SDS011;57917;51.380;-0.176;2023-04-24T06:53:06;18.02;;;8.75;;
29700;SDS011;57917;51.380;-0.176;2023-04-24T06:58:58;22.75;;;8.88;;
29700;SDS011;57917;51.380;-0.176;2023-04-24T07:04:46;18.35;;;7.45;;
29700;SDS011;57917;51.380;-0.176;2023-04-24T07:10:34;17.33;;;6.20;;
29700;SDS011;57917;51.380;-0.176;2023-04-24T07:16:28;11.48;;;5.72;;
29700;SDS011;57917;51.380;-0.176;2023-04-24T07:22:17;16.45;;;4.93;;
29700;SDS011;57917;51.380;-0.176;2023-04-24T07:28:05;11.32;;;5.00;;
29700;SDS011;57917;51.380;-0.176;2023-04-24T07:33:59;9.60;;;4.13;;
29700;SDS011;57917;51.380;-0.176;2023-04-24T07:39:46;6.57;;;3.67;;
29700;SDS011;57917;51.380;-0.176;2023-04-24T07:59:49;12.75;;;3.95;;
29700;SDS011;57917;51.380;-0.176;2023-04-24T08:06:05;10.00;;;2.65;;
29700;SDS011;57917;51.380;-0.176;2023-04-24T08:12:07;11.13;;;2.55;;
29700;SDS011;57917;51.380;-0.176;2023-04-24T08:17:57;9.15;;;2.45;;
29700;SDS011;57917;51.380;-0.176;2023-04-24T08:23:48;5.82;;;1.42;;
29700;SDS011;57917;51.380;-0.176;2023-04-24T08:30:12;7.07;;;1.67;;
29700;SDS011;57917;51.380;-0.176;2023-04-24T08:36:01;6.07;;;1.70;;
29700;SDS011;57917;51.380;-0.176;2023-04-24T08:41:52;5.57;;;1.47;;
29700;SDS011;57917;51.380;-0.176;2023-04-24T08:47:50;3.05;;;1.60;;
29700;SDS011;57917;51.380;-0.176;2023-04-24T08:53:46;3.38;;;1.67;;
29700;SDS011;57917;51.380;-0.176;2023-04-24T08:59:54;5.82;;;1.83;;
29700;SDS011;57917;51.380;-0.176;2023-04-24T09:05:46;9.70;;;2.05;;
29700;SDS011;57917;51.380;-0.176;2023-04-24T09:11:59;4.35;;;1.77;;
29700;SDS011;57917;51.380;-0.176;2023-04-24T09:17:54;5.93;;;1.60;;
29700;SDS011;57917;51.380;-0.176;2023-04-24T09:23:41;9.40;;;2.38;;
29700;SDS011;57917;51.380;-0.176;2023-04-24T09:29:28;6.45;;;1.98;;
29700;SDS011;57917;51.380;-0.176;2023-04-24T09:35:17;11.48;;;2.10;;
29700;SDS011;57917;51.380;-0.176;2023-04-24T09:41:08;6.38;;;1.95;;
29700;SDS011;57917;51.380;-0.176;2023-04-24T09:47:18;5.27;;;2.07;;
29700;SDS011;57917;51.380;-0.176;2023-04-24T09:53:08;6.70;;;2.30;;
29700;SDS011;57917;51.380;-0.176;2023-04-24T09:59:33;6.75;;;2.17;;
29700;SDS011;57917;51.380;-0.176;2023-04-24T10:05:23;6.43;;;2.30;;
29700;SDS011;57917;51.380;-0.176;2023-04-24T10:11:19;7.65;;;2.15;;
29700;SDS011;57917;51.380;-0.176;2023-04-24T10:17:14;4.50;;;1.80;;
29700;SDS011;57917;51.380;-0.176;2023-04-24T10:23:04;6.78;;;2.50;;
29700;SDS011;57917;51.380;-0.176;2023-04-24T10:28:52;7.93;;;2.53;;
29700;SDS011;57917;51.380;-0.176;2023-04-24T10:34:43;7.05;;;2.08;;
29700;SDS011;57917;51.380;-0.176;2023-04-24T10:40:47;15.02;;;3.10;;
29700;SDS011;57917;51.380;-0.176;2023-04-24T10:54:04;6.40;;;2.38;;
29700;SDS011;57917;51.380;-0.176;2023-04-24T11:00:21;6.72;;;2.00;;
29700;SDS011;57917;51.380;-0.176;2023-04-24T11:06:09;6.45;;;2.60;;
29700;SDS011;57917;51.380;-0.176;2023-04-24T11:12:05;8.88;;;2.90;;
29700;SDS011;57917;51.380;-0.176;2023-04-24T11:32:40;6.88;;;2.67;;
29700;SDS011;57917;51.380;-0.176;2023-04-24T11:38:49;5.30;;;2.65;;
29700;SDS011;57917;51.380;-0.176;2023-04-24T11:44:36;6.65;;;2.92;;
29700;SDS011;57917;51.380;-0.176;2023-04-24T11:50:27;7.78;;;2.85;;
29700;SDS011;57917;51.380;-0.176;2023-04-24T11:56:18;10.55;;;2.83;;
29700;SDS011;57917;51.380;-0.176;2023-04-24T12:09:55;8.25;;;2.55;;
29700;SDS011;57917;51.380;-0.176;2023-04-24T12:15:50;12.55;;;3.00;;
29700;SDS011;57917;51.380;-0.176;2023-04-24T12:22:00;5.15;;;2.90;;
29700;SDS011;57917;51.380;-0.176;2023-04-24T12:27:55;7.50;;;2.95;;
29700;SDS011;57917;51.380;-0.176;2023-04-24T12:35:00;5.03;;;2.87;;
29700;SDS011;57917;51.380;-0.176;2023-04-24T12:47:24;5.85;;;2.58;;
29700;SDS011;57917;51.380;-0.176;2023-04-24T12:53:47;8.23;;;2.90;;
29700;SDS011;57917;51.380;-0.176;2023-04-24T12:59:58;8.13;;;3.00;;
29700;SDS011;57917;51.380;-0.176;2023-04-24T13:06:03;8.93;;;2.80;;
29700;SDS011;57917;51.380;-0.176;2023-04-24T13:11:51;5.28;;;2.53;;
29700;SDS011;57917;51.380;-0.176;2023-04-24T13:17:42;6.78;;;3.10;;
29700;SDS011;57917;51.380;-0.176;2023-04-24T13:23:29;6.95;;;3.03;;
29700;SDS011;57917;51.380;-0.176;2023-04-24T13:29:19;9.27;;;3.47;;
29700;SDS011;57917;51.380;-0.176;2023-04-24T13:35:08;8.30;;;2.92;;
29700;SDS011;57917;51.380;-0.176;2023-04-24T13:40:55;8.98;;;2.95;;
29700;SDS011;57917;51.380;-0.176;2023-04-24T13:46:42;9.07;;;3.05;;
29700;SDS011;57917;51.380;-0.176;2023-04-24T13:52:34;10.82;;;2.97;;
29700;SDS011;57917;51.380;-0.176;2023-04-24T13:58:21;9.55;;;3.10;;
29700;SDS011;57917;51.380;-0.176;2023-04-24T14:04:11;7.40;;;3.28;;
29700;SDS011;57917;51.380;-0.176;2023-04-24T14:09:59;6.32;;;2.75;;
29700;SDS011;57917;51.380;-0.176;2023-04-24T14:15:46;5.03;;;2.60;;
29700;SDS011;57917;51.380;-0.176;2023-04-24T14:21:36;5.88;;;3.00;;
29700;SDS011;57917;51.380;-0.176;2023-04-24T14:27:27;6.30;;;2.85;;
29700;SDS011;57917;51.380;-0.176;2023-04-24T14:33:35;6.45;;;2.97;;
29700;SDS011;57917;51.380;-0.176;2023-04-24T14:39:53;7.63;;;2.92;;
29700;SDS011;57917;51.380;-0.176;2023-04-24T14:46:00;10.35;;;3.25;;
29700;SDS011;57917;51.380;-0.176;2023-04-24T14:51:49;5.95;;;2.67;;
29700;SDS011;57917;51.380;-0.176;2023-04-24T14:57:36;1.63;;;1.23;;
29700;SDS011;57917;51.380;-0.176;2023-04-24T15:03:26;5.50;;;1.35;;
29700;SDS011;57917;51.380;-0.176;2023-04-24T15:10:08;4.68;;;2.08;;
29700;SDS011;57917;51.380;-0.176;2023-04-24T15:16:09;3.67;;;2.45;;
29700;SDS011;57917;51.380;-0.176;2023-04-24T15:22:14;4.72;;;2.00;;
29700;SDS011;57917;51.380;-0.176;2023-04-24T15:28:04;2.72;;;2.08;;
29700;SDS011;57917;51.380;-0.176;2023-04-24T15:33:54;6.95;;;2.78;;
29700;SDS011;57917;51.380;-0.176;2023-04-24T15:39:41;2.80;;;1.83;;
29700;SDS011;57917;51.380;-0.176;2023-04-24T15:45:31;4.88;;;2.42;;
29700;SDS011;57917;51.380;-0.176;2023-04-24T15:51:19;104.47;;;5.32;;
29700;SDS011;57917;51.380;-0.176;2023-04-24T15:57:06;3.70;;;2.33;;
29700;SDS011;57917;51.380;-0.176;2023-04-24T16:02:53;2.95;;;2.20;;
29700;SDS011;57917;51.380;-0.176;2023-04-24T16:08:46;4.00;;;2.47;;
29700;SDS011;57917;51.380;-0.176;2023-04-24T16:14:52;4.72;;;2.30;;
29700;SDS011;57917;51.380;-0.176;2023-04-24T16:20:40;4.10;;;2.42;;
29700;SDS011;57917;51.380;-0.176;2023-04-24T16:26:31;4.28;;;2.55;;
29700;SDS011;57917;51.380;-0.176;2023-04-24T16:32:59;4.47;;;2.65;;
29700;SDS011;57917;51.380;-0.176;2023-04-24T16:38:48;5.45;;;1.48;;
29700;SDS011;57917;51.380;-0.176;2023-04-24T16:44:53;4.88;;;2.00;;
29700;SDS011;57917;51.380;-0.176;2023-04-24T16:51:17;6.28;;;3.47;;
29700;SDS011;57917;51.380;-0.176;2023-04-24T16:57:05;4.38;;;2.17;;
29700;SDS011;57917;51.380;-0.176;2023-04-24T17:02:53;5.95;;;2.30;;
29700;SDS011;57917;51.380;-0.176;2023-04-24T17:08:42;5.68;;;2.72;;
29700;SDS011;57917;51.380;-0.176;2023-04-24T17:14:33;5.93;;;2.95;;
29700;SDS011;57917;51.380;-0.176;2023-04-24T17:20:20;9.30;;;4.07;;
29700;SDS011;57917;51.380;-0.176;2023-04-24T17:26:09;12.00;;;4.45;;
29700;SDS011;57917;51.380;-0.176;2023-04-24T17:32:02;5.53;;;1.88;;
29700;SDS011;57917;51.380;-0.176;2023-04-24T17:38:04;5.83;;;3.57;;
29700;SDS011;57917;51.380;-0.176;2023-04-24T17:43:52;3.50;;;1.90;;
29700;SDS011;57917;51.380;-0.176;2023-04-24T17:49:40;3.45;;;1.80;;
29700;SDS011;57917;51.380;-0.176;2023-04-24T17:55:33;4.95;;;1.83;;
29700;SDS011;57917;51.380;-0.176;2023-04-24T18:01:22;4.97;;;2.40;;
29700;SDS011;57917;51.380;-0.176;2023-04-24T18:07:11;3.58;;;2.13;;
29700;SDS011;57917;51.380;-0.176;2023-04-24T18:12:59;5.30;;;2.85;;
29700;SDS011;57917;51.380;-0.176;2023-04-24T18:18:47;19.42;;;2.88;;
29700;SDS011;57917;51.380;-0.176;2023-04-24T18:24:34;9.68;;;3.65;;
29700;SDS011;57917;51.380;-0.176;2023-04-24T18:30:21;7.22;;;3.58;;
29700;SDS011;57917;51.380;-0.176;2023-04-24T18:36:10;11.77;;;3.50;;
29700;SDS011;57917;51.380;-0.176;2023-04-24T18:41:57;9.05;;;4.07;;
29700;SDS011;57917;51.380;-0.176;2023-04-24T18:47:54;13.40;;;4.03;;
29700;SDS011;57917;51.380;-0.176;2023-04-24T18:53:48;8.77;;;4.07;;
29700;SDS011;57917;51.380;-0.176;2023-04-24T18:59:47;6.15;;;3.30;;
29700;SDS011;57917;51.380;-0.176;2023-04-24T19:05:34;7.88;;;2.67;;
29700;SDS011;57917;51.380;-0.176;2023-04-24T19:11:21;18.02;;;2.78;;
29700;SDS011;57917;51.380;-0.176;2023-04-24T19:17:12;7.57;;;3.42;;
29700;SDS011;57917;51.380;-0.176;2023-04-24T19:22:59;22.20;;;3.35;;
29700;SDS011;57917;51.380;-0.176;2023-04-24T19:28:47;11.05;;;3.80;;
29700;SDS011;57917;51.380;-0.176;2023-04-24T19:34:34;6.40;;;2.22;;
29700;SDS011;57917;51.380;-0.176;2023-04-24T19:40:26;7.57;;;3.40;;
29700;SDS011;57917;51.380;-0.176;2023-04-24T19:46:16;11.00;;;2.97;;
29700;SDS011;57917;51.380;-0.176;2023-04-24T19:52:32;13.68;;;4.00;;
29700;SDS011;57917;51.380;-0.176;2023-04-24T19:58:58;13.43;;;4.63;;
29700;SDS011;57917;51.380;-0.176;2023-04-24T20:04:57;10.70;;;3.22;;
29700;SDS011;57917;51.380;-0.176;2023-04-24T20:11:12;11.77;;;4.32;;
29700;SDS011;57917;51.380;-0.176;2023-04-24T20:17:15;12.07;;;3.90;;
29700;SDS011;57917;51.380;-0.176;2023-04-24T20:23:06;6.32;;;3.10;;
29700;SDS011;57917;51.380;-0.176;2023-04-24T20:56:39;8.60;;;2.85;;
29700;SDS011;57917;51.380;-0.176;2023-04-24T21:03:22;10.35;;;3.10;;
29700;SDS011;57917;51.380;-0.176;2023-04-24T21:09:40;25.58;;;3.55;;
29700;SDS011;57917;51.380;-0.176;2023-04-24T21:15:29;11.32;;;2.50;;
29700;SDS011;57917;51.380;-0.176;2023-04-24T21:21:19;19.45;;;2.80;;
29700;SDS011;57917;51.380;-0.176;2023-04-24T21:27:13;3.88;;;1.73;;
29700;SDS011;57917;51.380;-0.176;2023-04-24T21:33:00;17.02;;;2.25;;
29700;SDS011;57917;51.380;-0.176;2023-04-24T21:38:48;9.40;;;1.85;;
29700;SDS011;57917;51.380;-0.176;2023-04-24T21:44:35;5.65;;;2.22;;
29700;SDS011;57917;51.380;-0.176;2023-04-24T21:50:22;3.70;;;1.65;;
29700;SDS011;57917;51.380;-0.176;2023-04-24T21:56:09;10.35;;;2.95;;
29700;SDS011;57917;51.380;-0.176;2023-04-24T22:01:58;8.63;;;2.13;;
29700;SDS011;57917;51.380;-0.176;2023-04-24T22:07:45;11.70;;;2.50;;
29700;SDS011;57917;51.380;-0.176;2023-04-24T22:13:36;17.17;;;2.88;;
29700;SDS011;57917;51.380;-0.176;2023-04-24T22:19:26;13.40;;;2.47;;
29700;SDS011;57917;51.380;-0.176;2023-04-24T22:25:16;16.98;;;6.00;;
29700;SDS011;57917;51.380;-0.176;2023-04-24T22:31:05;9.73;;;2.05;;
29700;SDS011;57917;51.380;-0.176;2023-04-24T22:37:07;3.75;;;1.50;;
29700;SDS011;57917;51.380;-0.176;2023-04-24T22:42:54;10.80;;;1.73;;
29700;SDS011;57917;51.380;-0.176;2023-04-24T22:48:41;9.30;;;2.15;;
29700;SDS011;57917;51.380;-0.176;2023-04-24T22:54:41;11.63;;;2.28;;
29700;SDS011;57917;51.380;-0.176;2023-04-24T23:00:37;10.32;;;2.85;;
29700;SDS011;57917;51.380;-0.176;2023-04-24T23:06:27;21.05;;;2.72;;
29700;SDS011;57917;51.380;-0.176;2023-04-24T23:12:13;12.55;;;2.20;;
29700;SDS011;57917;51.380;-0.176;2023-04-24T23:18:04;15.35;;;2.63;;
29700;SDS011;57917;51.380;-0.176;2023-04-24T23:23:51;13.60;;;2.45;;
29700;SDS011;57917;51.380;-0.176;2023-04-24T23:29:40;10.77;;;2.30;;
29700;SDS011;57917;51.380;-0.176;2023-04-24T23:35:27;19.90;;;2.65;;
29700;SDS011;57917;51.380;-0.176;2023-04-24T23:49:37;13.75;;;2.95;;
29700;SDS011;57917;51.380;-0.176;2023-04-24T23:55:27;13.85;;;2.88;;
